Time;durP1;ratioP1;P1;durP2;ratioP2;P2;SDS_P1;SDS_P2;PMS_P1;PMS_P2;Temp;Humidity;BMP_temperature;BMP_pressure;BME280_temperature;BME280_humidity;BME280_pressure;Samples;Min_cycle;Max_cycle;Signal;HPM_P1;HPM_P2
2023/01/12 00:00:36;;;;;;;144.48;30.15;;;;;;;4.35;100.00;99726.75;5132558;27;20046;-45
2023/01/12 00:03:02;;;;;;;121.25;24.52;;;;;;;4.40;100.00;99719.34;5131659;27;20064;-45
2023/01/12 00:05:27;;;;;;;294.05;40.63;;;;;;;4.44;100.00;99721.69;5131463;27;20034;-45
2023/01/12 00:07:53;;;;;;;511.13;43.63;;;;;;;4.30;100.00;99726.31;5132766;27;20092;-46
2023/01/12 00:10:19;;;;;;;172.40;29.02;;;;;;;4.22;100.00;99728.75;5133073;27;20481;-46
2023/01/12 00:12:44;;;;;;;192.55;28.48;;;;;;;4.16;100.00;99724.91;5132888;27;20079;-45
2023/01/12 00:15:10;;;;;;;94.55;24.48;;;;;;;4.14;100.00;99726.81;5132852;27;20027;-45
2023/01/12 00:17:36;;;;;;;40.10;21.63;;;;;;;4.15;100.00;99727.66;5131427;27;20023;-45
2023/01/12 00:20:03;;;;;;;105.78;24.30;;;;;;;4.18;100.00;99733.41;5132722;28;20042;-46
2023/01/12 00:22:29;;;;;;;68.90;23.15;;;;;;;4.14;100.00;99731.19;5132567;27;20458;-46
2023/01/12 00:24:54;;;;;;;72.20;23.10;;;;;;;4.06;100.00;99731.03;5132770;27;20019;-46
2023/01/12 00:27:22;;;;;;;47.63;21.92;;;;;;;3.99;100.00;99731.56;5132594;27;20072;-46
2023/01/12 00:29:48;;;;;;;43.60;23.48;;;;;;;4.02;100.00;99732.28;5132716;27;20030;-46
2023/01/12 00:32:17;;;;;;;46.35;24.27;;;;;;;4.07;100.00;99724.91;5132882;27;20389;-46
2023/01/12 00:34:43;;;;;;;41.42;24.17;;;;;;;4.15;100.00;99717.28;5132848;27;20015;-46
2023/01/12 00:37:10;;;;;;;31.90;22.95;;;;;;;4.15;100.00;99707.69;5132563;27;20027;-46
2023/01/12 00:39:36;;;;;;;42.55;23.60;;;;;;;4.11;100.00;99705.50;5132598;27;20539;-46
2023/01/12 00:47:31;;;;;;;40.38;25.08;;;;;;;3.97;100.00;99697.13;5132518;28;20035;-46
2023/01/12 00:49:56;;;;;;;137.40;29.02;;;;;;;3.95;100.00;99693.84;5132421;27;20027;-46
2023/01/12 00:52:22;;;;;;;341.38;38.13;;;;;;;3.80;100.00;99684.75;5131097;28;20034;-46
2023/01/12 00:54:48;;;;;;;63.08;24.88;;;;;;;3.74;100.00;99686.13;5132693;27;20023;-46
2023/01/12 00:57:14;;;;;;;31.55;23.67;;;;;;;3.71;100.00;99683.78;5132380;28;20531;-46
2023/01/12 00:59:40;;;;;;;40.33;25.95;;;;;;;3.75;100.00;99677.38;5131106;28;20027;-46
2023/01/12 01:02:07;;;;;;;33.72;21.80;;;;;;;3.70;100.00;99665.75;5114049;28;20023;-46
2023/01/12 01:04:35;;;;;;;1531.93;248.63;;;;;;;3.64;100.00;99671.47;5132328;27;20015;-45
2023/01/12 01:07:02;;;;;;;29.25;21.63;;;;;;;3.57;100.00;99668.56;5132239;27;20023;-45
2023/01/12 01:09:28;;;;;;;29.42;20.13;;;;;;;3.52;100.00;99676.75;5130972;28;20493;-45
2023/01/12 01:11:54;;;;;;;28.00;18.73;;;;;;;3.48;100.00;99674.53;5132335;27;20464;-45
2023/01/12 01:14:20;;;;;;;44.65;20.95;;;;;;;3.41;100.00;99682.03;5131225;28;20130;-45
2023/01/12 01:16:46;;;;;;;30.10;19.70;;;;;;;3.31;100.00;99692.34;5132201;28;20489;-45
2023/01/12 01:19:11;;;;;;;79.63;22.80;;;;;;;3.28;100.00;99695.22;5131801;27;20060;-45
2023/01/12 01:21:37;;;;;;;104.20;21.63;;;;;;;3.39;100.00;99699.50;5135685;27;20039;-45
2023/01/12 01:24:03;;;;;;;70.85;19.05;;;;;;;3.52;100.00;99697.53;5135960;27;20026;-45
2023/01/12 01:26:30;;;;;;;163.45;22.52;;;;;;;3.62;100.00;99689.75;5134473;27;20485;-45
2023/01/12 01:28:56;;;;;;;70.57;18.80;;;;;;;3.76;100.00;99689.44;5135863;27;20023;-45
2023/01/12 01:31:23;;;;;;;287.60;26.70;;;;;;;3.88;100.00;99691.91;5135793;27;20015;-46
2023/01/12 01:33:49;;;;;;;147.75;21.98;;;;;;;3.74;100.00;99686.13;5134496;27;20039;-46
2023/01/12 01:36:15;;;;;;;69.43;20.25;;;;;;;3.76;100.00;99694.63;5134363;27;20125;-46
2023/01/12 01:38:46;;;;;;;138.73;20.42;;;;;;;3.85;100.00;99692.19;5135691;27;20026;-45
2023/01/12 01:41:31;;;;;;;50.30;18.38;;;;;;;3.94;100.00;99687.03;5135644;27;20021;-46
2023/01/12 01:44:03;;;;;;;31.50;16.88;;;;;;;4.07;100.00;99704.94;5134403;27;20035;-46
2023/01/12 01:46:41;;;;;;;50.15;18.27;;;;;;;4.22;100.00;99699.38;5134170;27;20035;-45
2023/01/12 01:49:17;;;;;;;203.45;21.40;;;;;;;4.30;100.00;99686.53;5134258;27;20042;-46
2023/01/12 01:51:45;;;;;;;53.08;18.65;;;;;;;4.18;100.00;99683.22;5134154;27;20068;-46
2023/01/12 01:54:11;;;;;;;69.47;18.27;;;;;;;4.17;100.00;99672.00;5134061;27;20111;-46
2023/01/12 01:56:37;;;;;;;108.10;20.45;;;;;;;4.12;100.00;99658.59;5133968;27;20033;-46
2023/01/12 01:59:05;;;;;;;158.30;25.00;;;;;;;3.98;100.00;99653.78;5135372;27;20022;-46
2023/01/12 02:01:32;;;;;;;75.68;22.02;;;;;;;3.88;100.00;99648.56;5133917;27;20500;-46
2023/01/12 02:03:59;;;;;;;35.03;20.25;;;;;;;3.85;100.00;99650.63;5135475;27;20312;-45
2023/01/12 02:06:26;;;;;;;30.33;17.92;;;;;;;3.82;100.00;99653.47;5135002;27;20018;-46
2023/01/12 02:09:26;;;;;;;51.78;22.65;;;;;;;3.71;100.00;99642.25;5135173;27;20031;-46
2023/01/12 02:17:27;;;;;;;26.35;15.88;;;;;;;3.63;100.00;99642.09;5112909;27;20039;-45
2023/01/12 02:20:11;;;;;;;24.48;16.73;;;;;;;3.63;100.00;99636.09;5134873;27;20035;-46
2023/01/12 02:22:55;;;;;;;22.35;16.17;;;;;;;3.58;100.00;99642.50;5134739;27;20113;-45
2023/01/12 02:26:11;;;;;;;26.13;16.95;;;;;;;3.52;100.00;99627.47;5134792;27;20038;-45
2023/01/12 02:29:01;;;;;;;30.20;16.48;;;;;;;3.51;100.00;99632.78;5051275;28;20025;-46
2023/01/12 02:31:47;;;;;;;27.00;18.40;;;;;;;3.54;100.00;99640.28;5051234;28;20029;-46
2023/01/12 02:34:31;;;;;;;27.10;19.80;;;;;;;3.68;100.00;99652.91;5051281;28;20033;-45
2023/01/12 02:37:16;;;;;;;52.17;20.55;;;;;;;3.91;100.00;99656.09;5051200;28;20037;-45
2023/01/12 02:39:49;;;;;;;38.38;18.98;;;;;;;4.07;100.00;99653.00;5051174;28;20048;-45
2023/01/12 02:42:41;;;;;;;44.13;17.20;;;;;;;4.23;100.00;99647.28;5051123;28;20040;-45
2023/01/12 02:45:26;;;;;;;83.93;18.45;;;;;;;4.33;100.00;99644.69;5034235;28;20466;-45
2023/01/12 02:48:28;;;;;;;34.00;16.75;;;;;;;4.28;100.00;99642.47;5034244;28;20029;-45
2023/01/12 02:51:07;;;;;;;28.58;16.45;;;;;;;4.34;100.00;99638.50;5034274;28;20025;-45
2023/01/12 02:53:50;;;;;;;24.95;16.30;;;;;;;4.42;100.00;99637.84;5034127;28;20045;-45
2023/01/12 02:56:22;;;;;;;34.13;18.65;;;;;;;4.50;100.00;99636.19;5050964;28;20044;-45
2023/01/12 02:58:53;;;;;;;33.35;17.42;;;;;;;4.48;100.00;99632.91;5057054;27;20035;-45
2023/01/12 03:01:21;;;;;;;46.78;15.90;;;;;;;4.50;100.00;99628.38;5134200;27;20485;-45
2023/01/12 03:03:48;;;;;;;50.53;16.00;;;;;;;4.52;100.00;99626.47;5134079;27;20068;-46
2023/01/12 03:06:17;;;;;;;40.92;16.23;;;;;;;4.38;100.00;99629.50;5133908;27;20107;-45
2023/01/12 03:08:45;;;;;;;36.35;17.63;;;;;;;4.32;100.00;99637.84;5132639;27;20485;-45
2023/01/12 03:11:14;;;;;;;281.35;26.85;;;;;;;4.40;100.00;99635.38;5132762;27;20123;-45
2023/01/12 03:14:01;;;;;;;43.40;18.25;;;;;;;4.40;100.00;99632.78;5132527;27;20502;-45
2023/01/12 03:16:33;;;;;;;69.18;18.02;;;;;;;4.49;100.00;99647.56;5132466;27;20553;-45
2023/01/12 03:19:13;;;;;;;44.63;16.08;;;;;;;4.59;100.00;99648.38;5133897;27;20038;-46
2023/01/12 03:21:41;;;;;;;45.20;16.30;;;;;;;4.65;100.00;99657.41;5133560;27;20087;-46
2023/01/12 03:24:23;;;;;;;23.55;15.80;;;;;;;4.73;100.00;99654.13;5132318;27;20028;-46
2023/01/12 03:26:54;;;;;;;17.77;12.52;;;;;;;4.80;100.00;99656.00;5133561;27;20034;-45
2023/01/12 03:29:29;;;;;;;23.08;15.30;;;;;;;4.80;100.00;99661.19;5133559;27;20114;-46
2023/01/12 03:31:56;;;;;;;18.15;13.43;;;;;;;4.89;100.00;99662.16;5133449;27;20047;-46
2023/01/12 03:34:22;;;;;;;19.33;13.50;;;;;;;4.95;100.00;99659.00;5132404;27;20019;-46
2023/01/12 03:37:02;;;;;;;89.80;15.20;;;;;;;5.04;100.00;99665.13;5132063;27;20031;-46
2023/01/12 03:39:30;;;;;;;33.70;14.00;;;;;;;5.10;100.00;99667.19;5133384;27;20027;-45
2023/01/12 03:42:23;;;;;;;20.40;13.80;;;;;;;5.09;100.00;99659.50;5132860;27;20080;-46
2023/01/12 03:45:03;;;;;;;44.13;14.68;;;;;;;5.11;100.00;99653.22;5133339;27;20071;-46
2023/01/12 03:47:30;;;;;;;27.55;14.07;;;;;;;5.01;100.00;99649.81;5131829;27;20431;-46
2023/01/12 03:50:01;;;;;;;22.35;13.90;;;;;;;4.86;100.00;99652.03;5132145;27;20038;-46
2023/01/12 03:52:29;;;;;;;40.28;13.90;;;;;;;4.71;100.00;99650.81;5131893;27;20055;-45
2023/01/12 03:54:58;;;;;;;232.05;18.05;;;;;;;4.53;100.00;99646.31;5132111;27;20034;-46
2023/01/12 03:57:25;;;;;;;26.75;14.38;;;;;;;4.35;100.00;99648.78;5131746;27;20035;-45
2023/01/12 03:59:52;;;;;;;19.83;14.73;;;;;;;4.33;100.00;99649.88;5133119;27;20015;-45
2023/01/12 04:02:18;;;;;;;32.50;18.23;;;;;;;4.37;100.00;99651.25;5133018;27;20026;-46
2023/01/12 04:04:44;;;;;;;54.17;18.30;;;;;;;4.51;100.00;99655.22;5133003;27;20427;-46
2023/01/12 04:07:09;;;;;;;22.23;14.77;;;;;;;4.63;100.00;99658.47;5132845;27;20027;-45
2023/01/12 04:09:36;;;;;;;21.38;16.55;;;;;;;4.65;100.00;99652.19;5132938;27;20068;-45
2023/01/12 04:12:10;;;;;;;20.52;14.77;;;;;;;4.61;100.00;99645.63;5133162;27;20392;-45
2023/01/12 04:14:44;;;;;;;18.92;13.07;;;;;;;4.58;100.00;99638.09;5131932;27;20027;-46
2023/01/12 04:17:12;;;;;;;19.40;15.57;;;;;;;4.59;100.00;99645.75;5132899;27;20511;-46
2023/01/12 04:19:38;;;;;;;23.55;13.45;;;;;;;4.73;100.00;99639.31;5131759;27;20072;-45
2023/01/12 04:24:49;;;;;;;17.05;12.35;;;;;;;4.67;100.00;99633.84;5133043;28;20530;-45
2023/01/12 04:27:15;;;;;;;17.73;12.82;;;;;;;4.63;100.00;99625.53;5132609;28;20023;-45
2023/01/12 04:29:42;;;;;;;16.90;12.73;;;;;;;4.57;100.00;99623.47;5131429;28;20023;-46
2023/01/12 04:32:08;;;;;;;17.52;12.55;;;;;;;4.56;100.00;99617.44;5131572;28;20088;-45
2023/01/12 04:34:33;;;;;;;14.77;11.25;;;;;;;4.55;100.00;99628.81;5132665;27;20043;-45
2023/01/12 04:37:00;;;;;;;24.05;13.30;;;;;;;4.51;100.00;99632.63;5131613;28;20031;-45
2023/01/12 04:39:26;;;;;;;28.85;11.73;;;;;;;4.53;100.00;99643.72;5132608;27;20030;-45
2023/01/12 04:41:52;;;;;;;20.02;12.15;;;;;;;4.47;100.00;99646.06;5131230;28;20019;-45
2023/01/12 04:44:18;;;;;;;24.17;13.40;;;;;;;4.43;100.00;99642.91;5132585;27;20050;-45
2023/01/12 04:46:43;;;;;;;22.33;13.48;;;;;;;4.35;100.00;99645.38;5132379;28;20381;-45
2023/01/12 04:49:09;;;;;;;27.80;15.30;;;;;;;4.30;100.00;99650.13;5131126;28;20043;-45
2023/01/12 04:51:35;;;;;;;15.93;12.27;;;;;;;4.31;100.00;99641.41;5131179;28;20023;-45
2023/01/12 04:54:00;;;;;;;20.77;13.48;;;;;;;4.36;100.00;99634.81;5133397;27;20034;-45
2023/01/12 04:56:26;;;;;;;19.25;12.90;;;;;;;4.35;100.00;99634.97;5136519;27;20476;-45
2023/01/12 04:58:58;;;;;;;21.80;12.73;;;;;;;4.30;100.00;99634.56;5136444;27;20102;-45
2023/01/12 05:01:25;;;;;;;287.15;23.33;;;;;;;4.22;100.00;99632.63;5136693;27;20042;-45
2023/01/12 05:03:54;;;;;;;18.63;11.88;;;;;;;4.16;100.00;99633.16;5136405;27;20099;-45
2023/01/12 05:06:20;;;;;;;16.50;12.00;;;;;;;4.20;100.00;99647.53;5134964;27;20095;-45
2023/01/12 05:11:30;;;;;;;25.80;14.10;;;;;;;4.53;100.00;99659.31;5136295;27;20042;-45
2023/01/12 05:13:56;;;;;;;24.15;14.20;;;;;;;4.75;100.00;99660.81;5135030;27;20493;-45
2023/01/12 05:16:22;;;;;;;22.33;12.48;;;;;;;5.00;100.00;99666.38;5136120;27;20023;-45
2023/01/12 05:18:49;;;;;;;25.95;13.52;;;;;;;5.05;100.00;99660.75;5136404;27;20038;-45
2023/01/12 05:21:16;;;;;;;70.25;15.68;;;;;;;5.17;100.00;99657.84;5135746;27;20043;-45
2023/01/12 05:23:44;;;;;;;21.65;13.63;;;;;;;5.29;100.00;99655.06;5136270;27;20046;-45
2023/01/12 05:26:10;;;;;;;30.83;14.52;;;;;;;5.40;100.00;99653.09;5135882;27;20063;-45
2023/01/12 05:28:36;;;;;;;28.42;13.25;;;;;;;5.47;100.00;99657.75;5134611;27;20374;-45
2023/01/12 05:31:08;;;;;;;92.10;15.13;;;;;;;5.48;100.00;99651.59;5117424;27;20025;-45
2023/01/12 05:33:34;;;;;;;18.83;12.70;;;;;;;5.33;100.00;99654.66;5135941;27;20031;-45
2023/01/12 05:36:05;;;;;;;21.27;14.80;;;;;;;5.39;100.00;99661.06;5134410;27;20102;-45
2023/01/12 05:38:31;;;;;;;21.83;13.85;;;;;;;5.50;100.00;99657.47;5136026;27;20031;-45
2023/01/12 05:41:01;;;;;;;60.58;15.63;;;;;;;5.37;100.00;99657.78;5134301;27;20497;-45
2023/01/12 05:46:12;;;;;;;30.83;15.45;;;;;;;5.42;100.00;99667.78;5135795;27;20027;-45
2023/01/12 05:48:37;;;;;;;32.72;14.90;;;;;;;5.49;100.00;99668.84;5135581;27;20031;-45
2023/01/12 05:51:05;;;;;;;60.10;16.85;;;;;;;5.37;100.00;99658.63;5134146;27;20023;-46
2023/01/12 05:53:31;;;;;;;67.18;17.17;;;;;;;5.05;100.00;99648.59;5135534;27;20135;-46
2023/01/12 05:55:57;;;;;;;19.88;14.18;;;;;;;4.84;100.00;99653.13;5135433;27;20374;-46
2023/01/12 05:58:24;;;;;;;18.77;12.38;;;;;;;4.89;100.00;99658.72;5134027;27;20031;-45
2023/01/12 06:00:49;;;;;;;15.90;10.95;;;;;;;4.89;100.00;99662.16;5135318;27;20561;-46
2023/01/12 06:03:15;;;;;;;18.83;13.10;;;;;;;4.89;100.00;99658.72;5135551;27;20031;-45
2023/01/12 06:05:41;;;;;;;16.35;12.00;;;;;;;4.92;100.00;99643.66;5134692;27;20026;-45
2023/01/12 06:08:07;;;;;;;14.15;10.80;;;;;;;5.09;100.00;99643.88;5135208;27;20027;-46
2023/01/12 06:10:35;;;;;;;15.93;9.73;;;;;;;5.16;100.00;99639.78;5134140;27;20450;-46
2023/01/12 06:15:45;;;;;;;13.77;8.57;;;;;;;5.51;100.00;99659.91;5135071;27;20031;-46
2023/01/12 06:18:11;;;;;;;15.73;11.80;;;;;;;5.64;100.00;99658.78;5135003;27;20096;-45
2023/01/12 06:20:37;;;;;;;10.63;6.75;;;;;;;5.78;100.00;99658.28;5133295;27;20035;-46
2023/01/12 06:23:06;;;;;;;31.58;8.55;;;;;;;5.84;100.00;99673.34;5134882;27;20099;-46
2023/01/12 06:25:32;;;;;;;17.40;10.70;;;;;;;5.90;100.00;99687.56;5134814;27;20015;-46
2023/01/12 06:27:58;;;;;;;15.43;9.10;;;;;;;5.94;100.00;99686.31;5134807;27;20111;-46
2023/01/12 06:30:24;;;;;;;12.00;8.68;;;;;;;6.05;100.00;99688.75;5134963;27;20023;-46
2023/01/12 06:32:50;;;;;;;13.65;9.10;;;;;;;6.13;100.00;99690.63;5134662;27;20027;-46
2023/01/12 06:35:16;;;;;;;12.38;9.43;;;;;;;6.12;100.00;99695.03;5134692;27;20019;-46
2023/01/12 06:37:41;;;;;;;12.07;8.18;;;;;;;6.24;100.00;99702.63;5133273;27;20091;-46
2023/01/12 06:40:07;;;;;;;15.02;10.25;;;;;;;6.33;100.00;99707.78;5133175;27;20446;-46
2023/01/12 06:42:36;;;;;;;31.13;11.13;;;;;;;6.38;100.00;99699.53;5134539;27;20071;-46
2023/01/12 06:45:05;;;;;;;21.98;11.65;;;;;;;6.30;100.00;99702.88;5134348;27;20018;-46
2023/01/12 06:47:30;;;;;;;18.48;12.55;;;;;;;6.35;100.00;99699.81;5134533;27;20023;-46
2023/01/12 06:49:57;;;;;;;19.52;13.00;;;;;;;6.48;100.00;99696.81;5133028;27;20029;-46
2023/01/12 06:52:25;;;;;;;23.67;10.60;;;;;;;6.49;100.00;99703.69;5133081;27;20023;-46
2023/01/12 06:54:51;;;;;;;19.67;10.07;;;;;;;6.56;100.00;99697.75;5132979;27;20022;-45
2023/01/12 06:57:17;;;;;;;13.60;8.05;;;;;;;6.57;100.00;99712.41;5134142;27;20027;-46
2023/01/12 06:59:43;;;;;;;20.67;10.27;;;;;;;6.49;100.00;99703.69;5134140;27;20019;-46
2023/01/12 07:02:14;;;;;;;17.83;9.35;;;;;;;6.47;100.00;99708.22;5134127;27;20400;-46
2023/01/12 07:04:41;;;;;;;22.70;11.25;;;;;;;6.36;100.00;99717.09;5115715;27;20072;-46
2023/01/12 07:07:07;;;;;;;22.08;10.75;;;;;;;6.30;100.00;99726.31;5132594;27;20064;-46
2023/01/12 07:09:34;;;;;;;35.58;11.98;;;;;;;6.28;100.00;99724.81;5132942;27;20021;-46
2023/01/12 07:12:00;;;;;;;23.23;10.48;;;;;;;6.30;100.00;99723.72;5133908;27;20019;-46
2023/01/12 07:14:26;;;;;;;20.05;10.63;;;;;;;6.29;100.00;99722.06;5133868;27;20026;-46
2023/01/12 07:16:51;;;;;;;23.15;12.20;;;;;;;6.19;100.00;99724.72;5131746;27;20396;-46
2023/01/12 07:19:17;;;;;;;23.40;17.95;;;;;;;6.15;100.00;99718.16;5132427;27;20029;-46
2023/01/12 07:21:43;;;;;;;59.17;51.30;;;;;;;6.03;100.00;99718.53;5133507;27;20039;-46
2023/01/12 07:24:09;;;;;;;45.72;40.83;;;;;;;5.95;100.00;99719.25;5133648;27;20032;-46
2023/01/12 07:26:35;;;;;;;19.27;11.93;;;;;;;5.97;100.00;99709.50;5132261;27;20106;-46
2023/01/12 07:29:01;;;;;;;19.25;12.30;;;;;;;6.02;99.97;99712.50;5133642;27;20464;-46
2023/01/12 07:31:27;;;;;;;18.15;11.13;;;;;;;6.05;100.00;99714.78;5133505;27;20015;-46
2023/01/12 07:33:53;;;;;;;16.73;12.38;;;;;;;6.13;99.48;99719.28;5132196;27;20026;-46
2023/01/12 07:36:19;;;;;;;15.85;10.40;;;;;;;6.40;100.00;99723.66;5132171;27;20027;-46
2023/01/12 07:38:45;;;;;;;16.67;10.80;;;;;;;6.31;99.58;99725.34;5133381;27;20400;-46
2023/01/12 07:43:55;;;;;;;20.88;18.67;;;;;;;6.25;99.50;99712.91;5133696;27;20077;-46
2023/01/12 07:46:21;;;;;;;21.23;15.90;;;;;;;6.33;99.54;99706.94;5133186;27;20023;-46
2023/01/12 07:48:47;;;;;;;14.98;12.27;;;;;;;6.36;99.39;99711.88;5133369;27;20402;-46
2023/01/12 07:51:13;;;;;;;15.95;10.77;;;;;;;6.36;99.15;99719.72;5132235;27;20060;-46
2023/01/12 07:53:38;;;;;;;15.43;9.23;;;;;;;6.30;98.88;99726.31;5133245;27;20027;-46
2023/01/12 07:56:04;;;;;;;17.45;9.52;;;;;;;6.38;99.16;99720.38;5133180;27;20080;-46
2023/01/12 07:58:30;;;;;;;16.48;9.95;;;;;;;6.53;100.00;99718.88;5133165;27;20377;-46
2023/01/12 08:00:59;;;;;;;17.70;10.85;;;;;;;6.67;99.97;99719.34;5132994;27;20019;-46
2023/01/12 08:03:24;;;;;;;14.18;10.00;;;;;;;6.75;99.20;99720.22;5133288;27;20404;-46
2023/01/12 08:05:50;;;;;;;12.23;9.13;;;;;;;6.87;98.32;99709.56;5132958;27;20028;-46
2023/01/12 08:08:16;;;;;;;18.05;8.60;;;;;;;6.73;97.30;99708.31;5132944;27;20023;-46
2023/01/12 08:10:44;;;;;;;16.20;7.82;;;;;;;6.76;98.61;99714.06;5132924;27;20019;-46
2023/01/12 08:13:09;;;;;;;22.83;8.35;;;;;;;6.88;98.80;99713.81;5132932;27;20111;-46
2023/01/12 08:15:40;;;;;;;53.25;13.13;;;;;;;6.77;98.01;99699.22;5132835;27;20091;-46
2023/01/12 08:18:17;;;;;;;13.00;7.32;;;;;;;6.93;98.92;99706.34;5132907;27;20042;-46
2023/01/12 08:20:43;;;;;;;20.35;7.90;;;;;;;7.06;98.05;99696.31;5132618;27;20465;-45
2023/01/12 08:23:15;;;;;;;16.90;8.30;;;;;;;7.13;95.38;99691.31;5132872;27;20027;-46
2023/01/12 08:25:46;;;;;;;15.32;8.02;;;;;;;7.14;95.28;99690.34;5131397;28;20038;-46
2023/01/12 08:28:17;;;;;;;11.73;6.72;;;;;;;7.17;95.91;99696.06;5133257;27;20030;-47
2023/01/12 08:30:46;;;;;;;14.98;6.95;;;;;;;7.32;97.52;99704.16;5138308;27;20039;-47
2023/01/12 08:33:12;;;;;;;15.52;7.47;;;;;;;7.30;97.27;99700.88;5139547;27;20023;-47
2023/01/12 08:35:38;;;;;;;13.95;6.53;;;;;;;7.25;96.82;99703.16;5138191;27;20098;-47
2023/01/12 08:38:03;;;;;;;15.05;6.45;;;;;;;7.32;96.69;99695.50;5139431;27;20026;-46
2023/01/12 08:41:31;;;;;;;16.80;6.47;;;;;;;7.46;96.58;99699.34;5139474;27;20031;-46
2023/01/12 08:44:00;;;;;;;13.73;7.07;;;;;;;7.55;94.62;99694.00;5139279;27;20043;-46
2023/01/12 08:46:06;;;;;;;19.95;5.55;;;;;;;7.71;95.01;99685.44;5139182;27;20035;-46
2023/01/12 08:48:34;;;;;;;11.95;5.50;;;;;;;7.94;94.89;99690.91;5139424;27;20050;-46
2023/01/12 08:50:59;;;;;;;15.43;5.85;;;;;;;8.24;94.17;99693.13;5139581;27;20076;-46
2023/01/12 08:53:25;;;;;;;11.48;5.45;;;;;;;8.33;92.29;99682.53;5138050;27;20114;-47
2023/01/12 08:55:54;;;;;;;15.82;4.40;;;;;;;8.49;92.53;99688.75;5139304;27;20184;-47
2023/01/12 08:58:19;;;;;;;13.45;4.65;;;;;;;8.83;93.24;99682.56;5139287;27;20030;-47
2023/01/12 09:00:45;;;;;;;13.10;4.60;;;;;;;9.11;91.08;99681.22;5139307;27;20397;-47
2023/01/12 09:03:11;;;;;;;14.32;4.60;;;;;;;9.34;88.89;99676.13;5138058;27;20100;-47
2023/01/12 09:05:36;;;;;;;15.13;5.22;;;;;;;9.41;86.46;99678.88;5137946;27;20027;-47
2023/01/12 09:08:02;;;;;;;12.50;5.35;;;;;;;10.05;88.32;99681.41;5138072;27;20090;-47
2023/01/12 09:10:28;;;;;;;14.23;6.15;;;;;;;10.58;87.35;99668.47;5137860;27;20472;-47
2023/01/12 09:12:53;;;;;;;12.20;5.63;;;;;;;10.89;85.35;99678.88;5172648;27;20510;-47
2023/01/12 09:15:19;;;;;;;12.95;6.45;;;;;;;10.99;82.70;99681.28;5139059;27;20037;-47
2023/01/12 09:17:44;;;;;;;13.07;4.90;;;;;;;11.20;81.13;99686.63;5139142;27;20023;-47
2023/01/12 09:20:11;;;;;;;14.00;6.05;;;;;;;11.23;78.92;99674.13;5137778;27;20446;-47
2023/01/12 09:22:36;;;;;;;14.95;6.45;;;;;;;11.18;78.96;99658.91;5137571;27;20106;-47
2023/01/12 09:25:02;;;;;;;11.70;5.43;;;;;;;11.48;79.72;99651.84;5137986;27;20499;-47
2023/01/12 09:27:28;;;;;;;14.38;5.35;;;;;;;12.26;79.80;99654.00;5139003;27;20023;-47
2023/01/12 09:29:53;;;;;;;18.20;5.75;;;;;;;12.91;77.06;99655.56;5139006;27;20050;-45
2023/01/12 09:32:19;;;;;;;10.05;5.13;;;;;;;13.56;76.47;99650.94;5139033;27;20494;-45
2023/01/12 09:34:47;;;;;;;16.63;5.22;;;;;;;14.10;75.62;99646.63;5139172;27;20019;-45
2023/01/12 09:37:13;;;;;;;18.70;5.93;;;;;;;14.47;72.49;99636.56;5138956;27;20114;-45
2023/01/12 09:39:39;;;;;;;16.52;5.38;;;;;;;14.94;70.04;99647.16;5136265;27;20023;-45
2023/01/12 09:48:00;;;;;;;12.27;4.95;;;;;;;17.13;68.51;99657.66;5135558;27;20083;-45
2023/01/12 09:50:47;;;;;;;15.05;6.32;;;;;;;16.75;62.86;99666.53;5135519;27;20029;-45
2023/01/12 09:53:40;;;;;;;15.70;5.22;;;;;;;15.88;65.04;99660.97;5135555;27;20493;-45
2023/01/12 09:56:25;;;;;;;12.23;4.90;;;;;;;15.55;66.23;99670.63;5113774;27;20046;-45
2023/01/12 09:59:29;;;;;;;13.70;5.15;;;;;;;15.54;67.26;99660.25;5135472;27;20412;-45
2023/01/12 10:01:56;;;;;;;10.13;4.75;;;;;;;16.04;64.63;99652.53;5126734;27;20102;-45
2023/01/12 10:04:21;;;;;;;12.65;4.93;;;;;;;16.84;63.34;99656.50;5135255;27;20369;-45
2023/01/12 10:06:47;;;;;;;9.73;5.15;;;;;;;17.42;60.14;99660.63;5133823;27;20076;-45
2023/01/12 10:09:21;;;;;;;8.07;4.95;;;;;;;18.35;63.31;99656.81;5133778;27;20038;-46
2023/01/12 10:12:05;;;;;;;14.68;6.47;;;;;;;19.27;60.11;99651.00;5135177;27;20370;-46
2023/01/12 10:14:31;;;;;;;10.38;5.18;;;;;;;20.10;55.81;99648.97;5116679;27;20038;-46
2023/01/12 10:16:59;;;;;;;13.15;4.80;;;;;;;20.71;49.81;99648.41;5135026;27;20023;-44
2023/01/12 10:19:31;;;;;;;10.32;5.25;;;;;;;20.83;51.85;99650.97;5134972;27;20023;-44
2023/01/12 10:22:02;;;;;;;11.23;5.13;;;;;;;21.12;49.88;99651.66;5134669;27;20043;-44
2023/01/12 10:24:28;;;;;;;10.35;5.18;;;;;;;21.57;47.72;99656.03;5134986;27;20020;-44
2023/01/12 10:27:01;;;;;;;10.05;5.40;;;;;;;21.87;47.94;99647.53;5133402;27;20441;-44
2023/01/12 10:29:29;;;;;;;14.80;5.57;;;;;;;22.00;46.45;99642.84;5134883;27;20016;-44
2023/01/12 10:31:55;;;;;;;13.77;5.38;;;;;;;22.62;46.58;99634.34;5134707;27;20027;-45
2023/01/12 10:34:21;;;;;;;8.50;4.70;;;;;;;23.03;43.66;99636.50;5134739;27;20015;-44
2023/01/12 10:36:56;;;;;;;8.95;5.10;;;;;;;23.34;43.68;99626.75;5134962;27;20031;-44
2023/01/12 10:39:34;;;;;;;12.23;4.53;;;;;;;23.91;43.40;99625.09;5151348;27;20083;-44
2023/01/12 10:45:19;;;;;;;;;;;;;;;23.95;48.31;99611.97;5135151;27;20561;-45
2023/01/12 10:47:46;;;;;;;7.75;4.80;;;;;;;23.97;42.13;99605.25;5134366;27;19911;-45
2023/01/12 10:50:23;;;;;;;14.18;5.55;;;;;;;24.00;41.87;99598.56;5134300;27;20026;-45
2023/01/12 10:53:04;;;;;;;9.57;4.65;;;;;;;23.94;40.34;99595.06;5133166;27;20023;-45
2023/01/12 10:55:38;;;;;;;11.70;4.82;;;;;;;23.21;41.69;99595.09;5134307;27;20463;-45
2023/01/12 10:58:05;;;;;;;14.77;4.93;;;;;;;22.64;42.39;99589.41;5134172;27;20047;-45
2023/01/12 11:00:30;;;;;;;9.73;5.38;;;;;;;22.21;43.73;99596.53;5134093;27;20092;-45
2023/01/12 11:02:56;;;;;;;12.35;5.25;;;;;;;21.98;44.04;99588.84;5134073;27;20023;-45
2023/01/12 11:05:36;;;;;;;9.10;4.55;;;;;;;21.89;44.18;99583.13;5134096;27;20360;-45
2023/01/12 11:08:28;;;;;;;12.07;5.15;;;;;;;21.96;44.43;99569.59;5133986;27;20023;-45
2023/01/12 11:10:54;;;;;;;13.68;5.20;;;;;;;22.17;43.71;99571.34;5164138;27;20038;-45
2023/01/12 11:13:25;;;;;;;10.75;4.95;;;;;;;22.38;43.42;99560.88;5132593;27;20023;-45
2023/01/12 11:16:04;;;;;;;9.23;5.65;;;;;;;22.44;42.90;99555.28;5133819;27;20054;-45
2023/01/12 11:18:43;;;;;;;11.20;5.10;;;;;;;22.34;43.48;99552.53;5133917;27;20034;-45
2023/01/12 11:21:12;;;;;;;9.50;4.82;;;;;;;22.57;42.20;99555.91;5133518;27;20039;-45
2023/01/12 11:24:05;;;;;;;13.02;5.00;;;;;;;22.59;42.59;99549.22;5134042;27;20031;-45
2023/01/12 11:26:54;;;;;;;11.95;5.22;;;;;;;22.54;43.37;99551.88;5132344;27;20027;-45
2023/01/12 11:29:53;;;;;;;13.73;5.18;;;;;;;22.62;42.28;99547.94;5133656;27;20454;-45
2023/01/12 11:32:31;;;;;;;13.18;4.65;;;;;;;22.60;41.78;99544.69;5132511;27;20121;-45
2023/01/12 11:35:24;;;;;;;14.93;5.25;;;;;;;22.12;41.03;99549.94;5133593;27;20392;-45
2023/01/12 11:37:54;;;;;;;9.52;5.43;;;;;;;21.02;42.07;99547.44;5133473;27;20086;-45
2023/01/12 11:40:32;;;;;;;13.75;5.43;;;;;;;19.80;44.75;99541.81;5133478;27;20160;-44
2023/01/12 11:46:34;;;;;;;14.18;5.13;;;;;;;18.10;49.34;99529.47;5131092;27;20565;-44
2023/01/12 11:49:37;;;;;;;10.70;5.50;;;;;;;17.60;50.03;99525.25;5125599;27;20042;-44
2023/01/12 11:52:03;;;;;;;12.75;5.97;;;;;;;17.29;51.07;99524.44;5133463;27;20412;-44
2023/01/12 11:54:30;;;;;;;11.57;6.05;;;;;;;17.12;51.23;99523.41;5133173;27;20038;-44
2023/01/12 11:57:22;;;;;;;12.38;5.57;;;;;;;16.92;52.46;99523.63;5133122;27;20038;-44
2023/01/12 11:59:53;;;;;;;10.95;5.80;;;;;;;16.98;53.06;99514.78;5131868;27;20027;-44
2023/01/12 12:02:50;;;;;;;13.48;6.05;;;;;;;16.96;52.67;99516.84;5132935;27;20412;-44
2023/01/12 12:05:21;;;;;;;9.25;6.25;;;;;;;16.63;53.54;99514.53;5133067;27;20393;-44
2023/01/12 12:07:54;;;;;;;13.15;5.95;;;;;;;16.27;54.72;99500.19;5133160;27;20057;-44
2023/01/12 12:10:34;;;;;;;14.32;6.47;;;;;;;16.07;54.41;99505.66;5133042;27;20462;-44
2023/01/12 12:13:12;;;;;;;18.02;7.05;;;;;;;15.81;56.10;99498.72;5131643;27;20061;-44